Terminal Aerodrome Forecast
Issued by NWS Quad Cities IA IL

Home | Current Version | Previous Version | Text Only | Print | Product List | Glossary On
Versions: 1 2 3 4 5 6 7 8 9 10 11 12 13 14 15 16 17
000
FTUS43 KDVN 291700 RRA
TAFDBQ
TAF
KDBQ 291745Z 2918/3018 28007KT P6SM SCT050
     FM292300 34009KT P6SM SCT020 SCT080
     FM300100 02010G16KT 6SM BR SCT006 BKN015
     FM300500 03007KT 5SM BR SCT004 OVC008
     FM301500 05010KT P6SM BKN012=

USA.gov is the U.S. government's official web portal to all federal, state and local government web resources and services.